createdAt,value
2019-02-12T00:00:00.848Z,0.90
2019-02-12T00:02:33.924Z,0.90
2019-02-12T00:05:06.159Z,1.00
2019-02-12T00:07:38.306Z,1.00
2019-02-12T00:10:10.013Z,1.00
2019-02-12T00:12:41.548Z,1.00
2019-02-12T00:15:13.244Z,0.90
2019-02-12T00:17:45.192Z,0.90
2019-02-12T00:20:17.160Z,0.80
2019-02-12T00:22:48.896Z,0.70
2019-02-12T00:25:20.692Z,0.70
2019-02-12T00:27:52.889Z,0.70
2019-02-12T00:30:24.640Z,0.60
2019-02-12T00:32:56.687Z,0.60
2019-02-12T00:35:28.453Z,0.60
2019-02-12T00:38:00.166Z,0.60
2019-02-12T00:40:32.282Z,0.70
2019-02-12T00:43:03.926Z,0.70
2019-02-12T00:45:35.586Z,0.70
2019-02-12T00:48:07.127Z,0.70
2019-02-12T00:50:38.893Z,0.70
2019-02-12T00:53:12.153Z,0.70
2019-02-12T00:55:43.640Z,0.70
2019-02-12T00:58:16.565Z,0.80
2019-02-12T01:00:48.106Z,0.80
2019-02-12T01:03:19.717Z,0.90
2019-02-12T01:05:52.901Z,0.90
2019-02-12T01:08:26.132Z,0.90
2019-02-12T01:10:57.834Z,1.00
2019-02-12T01:13:29.617Z,1.00
2019-02-12T01:16:01.643Z,1.00
2019-02-12T01:18:33.497Z,1.10
2019-02-12T01:21:06.925Z,1.10
2019-02-12T01:23:38.831Z,1.10
2019-02-12T01:26:10.926Z,1.00
2019-02-12T01:28:42.767Z,1.00
2019-02-12T01:31:14.869Z,1.00
2019-02-12T01:33:47.071Z,1.00
2019-02-12T01:36:19.039Z,1.10
2019-02-12T01:38:50.910Z,1.10
2019-02-12T01:41:23.134Z,1.20
2019-02-12T01:43:56.547Z,1.10
2019-02-12T01:46:28.251Z,1.10
2019-02-12T01:48:59.669Z,1.00
2019-02-12T01:51:35.061Z,1.00
2019-02-12T01:54:05.895Z,1.00
2019-02-12T01:56:37.905Z,0.90
2019-02-12T01:59:10.431Z,0.90
2019-02-12T02:01:42.190Z,0.80
2019-02-12T02:04:14.007Z,0.70
2019-02-12T02:06:47.133Z,0.50
2019-02-12T02:09:18.978Z,0.60
2019-02-12T02:11:51.554Z,0.40
2019-02-12T02:14:24.416Z,0.40
2019-02-12T02:16:55.980Z,0.30
2019-02-12T02:19:27.732Z,0.30
2019-02-12T02:22:01.187Z,0.30
2019-02-12T02:24:33.105Z,0.30
2019-02-12T02:27:04.852Z,0.30
2019-02-12T02:29:36.842Z,0.10
2019-02-12T02:32:08.953Z,0.10
2019-02-12T02:34:40.742Z,0.00
2019-02-12T02:37:13.273Z,0.00
2019-02-12T02:39:44.772Z,-0.10
2019-02-12T02:42:16.857Z,-0.20
2019-02-12T02:44:48.526Z,-0.30
2019-02-12T02:47:20.377Z,-0.30
2019-02-12T02:49:52.434Z,-0.40
2019-02-12T02:52:25.716Z,-0.40
2019-02-12T02:54:57.528Z,-0.40
2019-02-12T02:57:30.530Z,-0.40
2019-02-12T03:00:03.260Z,-0.30
2019-02-12T03:02:36.724Z,-0.20
2019-02-12T03:05:10.928Z,-0.10
2019-02-12T03:07:44.320Z,0.10
2019-02-12T03:10:16.638Z,0.20
2019-02-12T03:12:49.790Z,0.30
2019-02-12T03:15:21.379Z,0.40
2019-02-12T03:17:53.230Z,0.50
2019-02-12T03:20:24.757Z,0.60
2019-02-12T03:22:57.436Z,0.70
2019-02-12T03:25:29.043Z,0.80
2019-02-12T03:28:00.543Z,0.80
2019-02-12T03:30:34.034Z,0.90
2019-02-12T03:33:05.880Z,0.80
2019-02-12T03:35:37.311Z,1.00
2019-02-12T03:38:08.833Z,1.10
2019-02-12T03:40:40.633Z,1.10
2019-02-12T03:43:12.293Z,1.20
2019-02-12T03:45:45.570Z,1.10
2019-02-12T03:48:18.106Z,1.20
2019-02-12T03:50:51.418Z,1.10
2019-02-12T03:53:23.014Z,1.10
2019-02-12T03:55:56.341Z,1.10
2019-02-12T03:58:46.290Z,1.10
2019-02-12T04:01:17.661Z,1.00
2019-02-12T04:03:51.219Z,1.20
2019-02-12T04:06:22.583Z,1.20
2019-02-12T04:08:54.719Z,1.20
2019-02-12T04:11:26.275Z,1.30
2019-02-12T04:13:57.612Z,1.40
2019-02-12T04:16:29.294Z,1.30
2019-02-12T04:19:00.769Z,1.30
2019-02-12T04:21:32.324Z,1.40
2019-02-12T04:24:04.300Z,1.50
2019-02-12T04:26:38.104Z,1.50
2019-02-12T04:29:09.486Z,1.50
2019-02-12T04:31:41.050Z,1.50
2019-02-12T04:34:12.963Z,1.50
2019-02-12T04:36:44.514Z,1.50
2019-02-12T04:39:16.456Z,1.40
2019-02-12T04:41:47.829Z,1.40
2019-02-12T04:44:19.554Z,1.40
2019-02-12T04:46:51.126Z,1.20
2019-02-12T04:49:23.829Z,1.20
2019-02-12T04:51:55.298Z,1.10
2019-02-12T04:54:28.166Z,1.00
2019-02-12T04:56:59.948Z,0.90
2019-02-12T04:59:31.992Z,0.90
2019-02-12T05:02:03.944Z,0.80
2019-02-12T05:04:35.555Z,0.80
2019-02-12T05:07:09.294Z,0.80
2019-02-12T05:09:43.134Z,0.80
2019-02-12T05:12:16.944Z,0.70
2019-02-12T05:14:48.696Z,0.70
2019-02-12T05:17:20.074Z,0.70
2019-02-12T05:19:51.857Z,0.60
2019-02-12T05:22:23.699Z,0.70
2019-02-12T05:24:55.439Z,0.70
2019-02-12T05:27:27.375Z,0.70
2019-02-12T05:29:59.182Z,0.70
2019-02-12T05:32:30.554Z,0.70
2019-02-12T05:35:02.062Z,0.70
2019-02-12T05:37:33.699Z,0.80
2019-02-12T05:40:06.031Z,0.80
2019-02-12T05:42:37.589Z,1.10
2019-02-12T05:45:10.446Z,1.10
2019-02-12T05:47:42.288Z,1.10
2019-02-12T05:50:14.242Z,1.10
2019-02-12T05:52:53.803Z,1.10
2019-02-12T05:55:19.308Z,1.10
2019-02-12T05:57:52.476Z,1.10
2019-02-12T06:00:26.645Z,1.10
2019-02-12T06:02:58.385Z,1.10
2019-02-12T06:05:30.551Z,1.10
2019-02-12T06:08:02.254Z,1.10
2019-02-12T06:10:33.954Z,1.10
2019-02-12T06:13:05.925Z,1.20
2019-02-12T06:15:37.533Z,1.30
2019-02-12T06:18:09.077Z,1.30
2019-02-12T06:20:41.501Z,1.20
2019-02-12T06:23:12.993Z,1.20
2019-02-12T06:25:45.582Z,1.10
2019-02-12T06:28:17.199Z,1.10
2019-02-12T06:30:50.609Z,1.10
2019-02-12T06:33:22.163Z,1.10
2019-02-12T06:35:53.756Z,1.10
2019-02-12T06:38:25.824Z,1.00
2019-02-12T06:40:57.496Z,0.90
2019-02-12T06:43:29.017Z,0.80
2019-02-12T06:46:00.567Z,0.80
2019-02-12T06:48:31.915Z,0.80
2019-02-12T06:51:03.496Z,0.90
2019-02-12T06:53:35.273Z,1.00
2019-02-12T06:56:07.859Z,1.00
2019-02-12T06:58:43.244Z,1.00
2019-02-12T07:01:14.749Z,1.00
2019-02-12T07:03:52.771Z,1.00
2019-02-12T07:06:49.591Z,1.00
2019-02-12T07:09:35.206Z,1.10
2019-02-12T07:12:32.295Z,1.20
2019-02-12T07:15:09.744Z,1.40
2019-02-12T07:18:08.896Z,1.40
2019-02-12T07:21:26.092Z,1.50
2019-02-12T07:24:33.914Z,1.50
2019-02-12T07:27:44.763Z,1.40
2019-02-12T07:30:55.924Z,1.40
2019-02-12T07:33:37.545Z,1.40
2019-02-12T07:36:44.762Z,1.60
2019-02-12T07:39:46.763Z,1.70
2019-02-12T07:42:49.844Z,1.80
2019-02-12T07:45:57.151Z,1.80
2019-02-12T07:48:51.627Z,1.80
2019-02-12T07:52:00.298Z,1.90
2019-02-12T07:54:43.308Z,1.90
2019-02-12T07:57:46.350Z,2.00
2019-02-12T08:01:14.334Z,2.00
2019-02-12T08:04:19.275Z,2.00
2019-02-12T08:07:19.230Z,2.10
2019-02-12T08:10:29.384Z,2.10
2019-02-12T08:14:15.217Z,2.00
2019-02-12T08:17:18.544Z,2.10
2019-02-12T08:20:46.029Z,2.10
2019-02-12T08:23:43.667Z,2.30
2019-02-12T08:26:42.808Z,2.30
2019-02-12T08:30:04.964Z,2.40
2019-02-12T08:33:07.882Z,2.50
2019-02-12T08:36:25.670Z,2.60
2019-02-12T08:39:22.463Z,2.60
2019-02-12T08:42:43.169Z,2.60
2019-02-12T08:45:41.705Z,2.50
2019-02-12T08:48:51.615Z,2.50
2019-02-12T08:51:43.336Z,2.40
2019-02-12T08:54:49.611Z,2.50
2019-02-12T08:58:05.135Z,2.40
2019-02-12T09:01:02.018Z,2.40
2019-02-12T09:04:01.925Z,2.60
2019-02-12T09:07:15.986Z,2.70
2019-02-12T09:10:34.876Z,2.90
2019-02-12T09:13:39.084Z,2.90
2019-02-12T09:16:56.370Z,3.10
2019-02-12T09:19:59.488Z,3.10
2019-02-12T09:23:26.863Z,3.20
2019-02-12T09:26:39.417Z,3.30
2019-02-12T09:29:45.832Z,3.30
2019-02-12T09:32:45.003Z,3.30
2019-02-12T09:36:00.414Z,3.30
2019-02-12T09:39:11.820Z,3.20
2019-02-12T09:42:30.653Z,3.20
2019-02-12T09:45:32.326Z,3.20
2019-02-12T09:48:11.518Z,3.30
2019-02-12T09:51:29.654Z,3.50
2019-02-12T09:54:22.096Z,3.70
2019-02-12T09:57:31.726Z,4.00
2019-02-12T10:00:14.642Z,4.10
2019-02-12T10:03:26.901Z,4.30
2019-02-12T10:06:41.613Z,4.50
2019-02-12T10:10:21.934Z,4.60
2019-02-12T10:13:24.826Z,4.80
2019-02-12T10:16:18.857Z,4.90
2019-02-12T10:19:28.803Z,5.10
2019-02-12T10:22:52.095Z,5.20
2019-02-12T10:25:35.830Z,5.30
2019-02-12T10:28:48.922Z,5.30
2019-02-12T10:31:29.229Z,5.20
2019-02-12T10:34:01.127Z,5.30
2019-02-12T10:36:33.570Z,5.40
2019-02-12T10:39:08.035Z,5.50
2019-02-12T10:41:39.476Z,5.70
2019-02-12T10:44:11.244Z,5.80
2019-02-12T10:46:44.436Z,6.00
2019-02-12T10:49:16.046Z,6.20
2019-02-12T10:51:48.479Z,6.30
2019-02-12T10:54:27.751Z,6.50
2019-02-12T10:56:54.983Z,6.60
2019-02-12T10:59:27.469Z,6.80
2019-02-12T11:01:59.499Z,7.00
2019-02-12T11:04:31.375Z,7.10
2019-02-12T11:07:03.086Z,7.30
2019-02-12T11:09:34.551Z,7.50
2019-02-12T11:12:06.463Z,7.60
2019-02-12T11:14:38.380Z,7.80
2019-02-12T11:17:10.184Z,7.90
2019-02-12T11:19:42.837Z,7.90
2019-02-12T11:22:14.324Z,7.90
2019-02-12T11:24:46.238Z,7.90
2019-02-12T11:27:18.271Z,8.20
2019-02-12T11:29:51.145Z,8.30
2019-02-12T11:32:23.006Z,8.60
2019-02-12T11:34:54.936Z,8.70
2019-02-12T11:37:26.729Z,8.80
2019-02-12T11:39:58.574Z,8.80
2019-02-12T11:42:31.530Z,8.90
2019-02-12T11:45:03.080Z,9.00
2019-02-12T11:47:37.562Z,9.10
2019-02-12T11:50:09.964Z,9.20
2019-02-12T11:52:41.469Z,9.30
2019-02-12T11:55:13.100Z,9.40
2019-02-12T11:57:44.896Z,9.30
2019-02-12T12:00:22.100Z,9.40
2019-02-12T12:02:54.148Z,9.60
2019-02-12T12:05:25.676Z,9.60
2019-02-12T12:07:57.025Z,9.50
2019-02-12T12:10:28.994Z,9.60
2019-02-12T12:13:01.624Z,9.60
2019-02-12T12:15:33.805Z,9.60
2019-02-12T12:18:05.190Z,9.60
2019-02-12T12:20:37.041Z,9.60
2019-02-12T12:23:08.459Z,9.60
2019-02-12T12:25:39.944Z,9.60
2019-02-12T12:28:12.049Z,9.60
2019-02-12T12:30:43.968Z,9.60
2019-02-12T12:33:15.392Z,9.70
2019-02-12T12:35:48.418Z,9.80
2019-02-12T12:38:21.215Z,9.90
2019-02-12T12:40:52.881Z,10.00
2019-02-12T12:43:24.348Z,10.00
2019-02-12T12:45:55.661Z,10.00
2019-02-12T12:48:27.676Z,10.10
2019-02-12T12:50:59.707Z,10.20
2019-02-12T12:53:32.269Z,10.30
2019-02-12T12:56:03.863Z,10.40
2019-02-12T12:58:35.297Z,10.30
2019-02-12T13:01:06.787Z,10.40
2019-02-12T13:03:41.507Z,10.50
2019-02-12T13:06:14.135Z,10.40
2019-02-12T13:08:45.711Z,10.50
2019-02-12T13:11:17.393Z,10.50
2019-02-12T13:13:50.161Z,10.40
2019-02-12T13:16:25.523Z,10.50
2019-02-12T13:18:57.333Z,10.50
2019-02-12T13:21:28.838Z,10.40
2019-02-12T13:24:00.622Z,10.40
2019-02-12T13:26:32.337Z,10.40
2019-02-12T13:29:03.987Z,10.30
2019-02-12T13:31:36.959Z,10.20
2019-02-12T13:34:08.391Z,10.00
2019-02-12T13:36:40.987Z,10.00
2019-02-12T13:39:12.743Z,10.10
2019-02-12T13:41:44.392Z,10.00
2019-02-12T13:44:16.113Z,9.90
2019-02-12T13:46:47.572Z,9.90
2019-02-12T13:49:19.187Z,9.80
2019-02-12T13:51:50.793Z,9.70
2019-02-12T13:54:22.358Z,9.70
2019-02-12T13:56:54.069Z,9.70
2019-02-12T13:59:27.332Z,9.90
2019-02-12T14:02:00.359Z,10.00
2019-02-12T14:04:32.056Z,10.10
2019-02-12T14:07:03.570Z,9.80
2019-02-12T14:09:35.510Z,9.80
2019-02-12T14:12:06.913Z,9.70
2019-02-12T14:14:39.472Z,9.70
2019-02-12T14:17:11.500Z,9.80
2019-02-12T14:19:43.052Z,9.60
2019-02-12T14:22:14.584Z,9.70
2019-02-12T14:24:46.239Z,9.80
2019-02-12T14:27:17.728Z,9.90
2019-02-12T14:29:49.499Z,10.00
2019-02-12T14:32:21.085Z,10.20
2019-02-12T14:34:55.226Z,10.40
2019-02-12T14:37:27.035Z,10.60
2019-02-12T14:39:58.625Z,10.50
2019-02-12T14:42:31.946Z,10.40
2019-02-12T14:45:03.398Z,10.40
2019-02-12T14:47:35.087Z,10.40
2019-02-12T14:50:07.630Z,10.40
2019-02-12T14:52:40.387Z,10.30
2019-02-12T14:55:12.270Z,10.20
2019-02-12T14:57:44.068Z,10.30
2019-02-12T15:00:16.296Z,10.20
2019-02-12T15:02:49.769Z,10.10
2019-02-12T15:05:23.156Z,10.00
2019-02-12T15:07:55.239Z,10.00
2019-02-12T15:10:27.577Z,10.00
2019-02-12T15:12:59.022Z,9.90
2019-02-12T15:15:30.755Z,9.90
2019-02-12T15:18:02.307Z,9.90
2019-02-12T15:20:36.152Z,9.90
2019-02-12T15:23:07.974Z,9.90
2019-02-12T15:25:41.962Z,9.90
2019-02-12T15:28:13.149Z,10.00
2019-02-12T15:30:45.281Z,10.10
2019-02-12T15:33:17.144Z,10.10
2019-02-12T15:35:49.083Z,10.10
2019-02-12T15:38:21.629Z,10.20
2019-02-12T15:40:54.974Z,10.30
2019-02-12T15:43:27.185Z,10.40
2019-02-12T15:45:58.965Z,10.30
2019-02-12T15:48:30.407Z,10.30
2019-02-12T15:51:01.793Z,10.20
2019-02-12T15:53:33.372Z,9.80
2019-02-12T15:56:05.257Z,9.70
2019-02-12T15:58:36.738Z,9.50
2019-02-12T16:01:08.759Z,8.90
2019-02-12T16:03:40.479Z,8.60
2019-02-12T16:06:13.917Z,8.20
2019-02-12T16:08:46.330Z,8.00
2019-02-12T16:11:19.139Z,7.90
2019-02-12T16:13:54.719Z,8.10
2019-02-12T16:16:24.713Z,8.20
2019-02-12T16:18:56.753Z,8.10
2019-02-12T16:21:28.557Z,8.10
2019-02-12T16:23:59.902Z,8.20
2019-02-12T16:26:31.699Z,8.20
2019-02-12T16:29:03.387Z,8.20
2019-02-12T16:31:35.002Z,8.10
2019-02-12T16:34:06.550Z,8.10
2019-02-12T16:36:38.261Z,8.10
2019-02-12T16:39:10.039Z,8.00
2019-02-12T16:41:42.763Z,8.00
2019-02-12T16:44:14.393Z,7.90
2019-02-12T16:46:46.294Z,7.90
2019-02-12T16:49:19.347Z,7.90
2019-02-12T16:51:50.815Z,7.90
2019-02-12T16:54:22.470Z,7.70
2019-02-12T16:56:53.913Z,7.60
2019-02-12T16:59:25.374Z,7.50
2019-02-12T17:01:57.933Z,7.30
2019-02-12T17:04:32.355Z,7.20
2019-02-12T17:07:06.157Z,7.10
2019-02-12T17:09:38.187Z,7.10
2019-02-12T17:12:09.975Z,7.00
2019-02-12T17:14:41.394Z,6.80
2019-02-12T17:17:13.416Z,6.80
2019-02-12T17:19:45.400Z,6.90
2019-02-12T17:22:17.035Z,7.00
2019-02-12T17:24:50.731Z,7.00
2019-02-12T17:27:22.641Z,7.00
2019-02-12T17:29:54.136Z,6.90
2019-02-12T17:32:25.750Z,7.00
2019-02-12T17:35:01.474Z,6.80
2019-02-12T17:37:32.134Z,6.80
2019-02-12T17:40:03.832Z,6.70
2019-02-12T17:42:36.997Z,6.70
2019-02-12T17:45:10.446Z,6.50
2019-02-12T17:47:42.097Z,6.40
2019-02-12T17:50:13.793Z,6.30
2019-02-12T17:52:45.618Z,6.30
2019-02-12T17:55:16.992Z,6.20
2019-02-12T17:57:48.975Z,6.30
2019-02-12T18:00:23.754Z,6.30
2019-02-12T18:02:55.610Z,6.20
2019-02-12T18:05:27.249Z,6.20
2019-02-12T18:07:59.220Z,6.20
2019-02-12T18:10:30.716Z,6.20
2019-02-12T18:13:02.560Z,6.10
2019-02-12T18:15:34.236Z,6.10
2019-02-12T18:18:06.016Z,6.10
2019-02-12T18:20:37.503Z,6.00
2019-02-12T18:23:09.397Z,6.00
2019-02-12T18:25:41.139Z,5.90
2019-02-12T18:28:14.214Z,5.90
2019-02-12T18:30:45.581Z,5.90
2019-02-12T18:33:17.558Z,5.90
2019-02-12T18:35:49.321Z,5.90
2019-02-12T18:38:22.463Z,6.00
2019-02-12T18:40:53.863Z,6.00
2019-02-12T18:43:25.449Z,6.00
2019-02-12T18:45:58.677Z,6.00
2019-02-12T18:48:30.165Z,6.10
2019-02-12T18:51:03.264Z,6.00
2019-02-12T18:53:34.613Z,6.00
2019-02-12T18:56:07.175Z,6.10
2019-02-12T18:58:38.908Z,6.10
2019-02-12T19:01:12.438Z,6.10
2019-02-12T19:03:45.808Z,6.00
2019-02-12T19:06:18.745Z,5.90
2019-02-12T19:08:52.333Z,5.90
2019-02-12T19:11:24.282Z,5.90
2019-02-12T19:13:55.863Z,5.90
2019-02-12T19:16:27.646Z,5.80
2019-02-12T19:18:59.133Z,5.60
2019-02-12T19:21:30.845Z,5.60
2019-02-12T19:24:02.473Z,5.70
2019-02-12T19:26:34.024Z,5.60
2019-02-12T19:29:05.854Z,5.70
2019-02-12T19:31:39.274Z,5.70
2019-02-12T19:34:11.012Z,5.80
2019-02-12T19:36:47.984Z,5.90
2019-02-12T19:39:20.051Z,5.90
2019-02-12T19:41:52.041Z,5.90
2019-02-12T19:44:24.681Z,5.90
2019-02-12T19:46:57.298Z,5.80
2019-02-12T19:49:30.271Z,5.80
2019-02-12T19:52:02.866Z,5.80
2019-02-12T19:54:34.389Z,5.80
2019-02-12T19:57:05.929Z,5.80
2019-02-12T19:59:37.588Z,5.80
2019-02-12T20:02:08.944Z,5.80
2019-02-12T20:04:40.967Z,5.80
2019-02-12T20:07:12.650Z,5.80
2019-02-12T20:09:44.599Z,5.70
2019-02-12T20:12:16.110Z,5.60
2019-02-12T20:14:47.868Z,5.60
2019-02-12T20:17:19.441Z,5.50
2019-02-12T20:19:51.211Z,5.50
2019-02-12T20:22:22.757Z,5.40
2019-02-12T20:24:54.266Z,5.30
2019-02-12T20:27:26.094Z,5.30
2019-02-12T20:29:57.632Z,5.20
2019-02-12T20:32:33.347Z,5.30
2019-02-12T20:35:06.925Z,5.20
2019-02-12T20:37:39.638Z,5.10
2019-02-12T20:40:12.403Z,5.10
2019-02-12T20:42:44.228Z,5.00
2019-02-12T20:45:16.072Z,5.00
2019-02-12T20:47:49.566Z,4.90
2019-02-12T20:50:21.119Z,4.80
2019-02-12T20:52:59.993Z,4.70
2019-02-12T20:55:32.082Z,4.70
2019-02-12T20:58:05.803Z,4.80
2019-02-12T21:00:38.037Z,4.70
2019-02-12T21:03:11.116Z,4.60
2019-02-12T21:05:43.071Z,4.50
2019-02-12T21:08:14.649Z,4.60
2019-02-12T21:10:46.596Z,4.50
2019-02-12T21:13:20.911Z,4.60
2019-02-12T21:15:52.466Z,4.60
2019-02-12T21:18:24.153Z,4.60
2019-02-12T21:20:55.686Z,4.50
2019-02-12T21:23:28.896Z,4.40
2019-02-12T21:26:00.602Z,4.30
2019-02-12T21:28:32.559Z,4.20
2019-02-12T21:31:06.273Z,4.20
2019-02-12T21:33:37.714Z,4.20
2019-02-12T21:36:09.643Z,4.20
2019-02-12T21:38:41.156Z,4.10
2019-02-12T21:41:14.943Z,4.20
2019-02-12T21:43:47.895Z,4.20
2019-02-12T21:46:19.371Z,4.10
2019-02-12T21:48:51.031Z,4.00
2019-02-12T21:51:22.959Z,4.00
2019-02-12T21:53:56.317Z,4.00
2019-02-12T21:56:27.898Z,4.10
2019-02-12T21:58:59.199Z,4.10
2019-02-12T22:01:30.667Z,4.00
2019-02-12T22:04:02.154Z,3.90
2019-02-12T22:06:33.836Z,3.80
2019-02-12T22:09:06.579Z,3.80
2019-02-12T22:11:38.160Z,3.90
2019-02-12T22:14:09.936Z,3.80
2019-02-12T22:16:41.498Z,3.80
2019-02-12T22:19:13.366Z,3.80
2019-02-12T22:21:45.290Z,3.70
2019-02-12T22:24:18.068Z,3.70
2019-02-12T22:26:49.824Z,3.80
2019-02-12T22:29:21.624Z,3.80
2019-02-12T22:31:53.236Z,3.70
2019-02-12T22:34:24.947Z,3.70
2019-02-12T22:36:56.339Z,3.70
2019-02-12T22:39:29.358Z,3.80
2019-02-12T22:42:01.253Z,3.80
2019-02-12T22:44:33.928Z,3.80
2019-02-12T22:47:05.819Z,3.90
2019-02-12T22:49:37.150Z,3.80
2019-02-12T22:52:08.469Z,3.90
2019-02-12T22:54:40.010Z,3.80
2019-02-12T22:57:11.767Z,3.80
2019-02-12T22:59:44.312Z,3.80
2019-02-12T23:02:15.959Z,3.70
2019-02-12T23:04:47.470Z,3.70
2019-02-12T23:07:19.678Z,3.80
2019-02-12T23:09:51.388Z,3.70
2019-02-12T23:12:24.737Z,3.70
2019-02-12T23:14:56.500Z,3.70
2019-02-12T23:17:27.915Z,3.70
2019-02-12T23:19:59.388Z,3.70
2019-02-12T23:22:30.971Z,3.80
2019-02-12T23:25:02.830Z,3.80
2019-02-12T23:27:34.574Z,3.90
2019-02-12T23:30:06.782Z,3.90
2019-02-12T23:32:38.473Z,4.00
2019-02-12T23:35:10.020Z,4.00
2019-02-12T23:37:42.242Z,4.00
2019-02-12T23:40:13.728Z,4.00
2019-02-12T23:42:45.381Z,4.00
2019-02-12T23:45:17.809Z,4.00
2019-02-12T23:47:49.215Z,4.00
2019-02-12T23:50:20.872Z,4.00
2019-02-12T23:52:53.739Z,4.00
2019-02-12T23:55:25.645Z,4.00
2019-02-12T23:58:05.622Z,3.90
